createdAt,value
2022-12-27T00:03:10.741Z,80.40
2022-12-27T00:08:13.345Z,79.31
2022-12-27T00:13:14.940Z,79.12
2022-12-27T00:18:16.529Z,77.66
2022-12-27T00:23:18.359Z,78.30
2022-12-27T00:28:20.879Z,77.73
2022-12-27T00:33:22.578Z,77.42
2022-12-27T00:38:24.223Z,74.94
2022-12-27T00:43:25.949Z,74.07
2022-12-27T00:48:27.961Z,74.76
2022-12-27T00:53:31.360Z,74.29
2022-12-27T00:58:35.995Z,74.83
2022-12-27T01:03:41.797Z,74.85
2022-12-27T01:08:44.744Z,75.56
2022-12-27T01:13:46.716Z,75.56
2022-12-27T01:18:49.517Z,75.72
2022-12-27T01:23:52.246Z,76.13
2022-12-27T01:28:54.259Z,77.27
2022-12-27T01:33:58.453Z,78.23
2022-12-27T01:39:00.763Z,78.64
2022-12-27T01:44:40.335Z,79.17
2022-12-27T01:50:07.581Z,79.38
2022-12-27T01:55:41.423Z,80.05
2022-12-27T02:00:46.113Z,80.32
2022-12-27T02:05:48.318Z,80.45
2022-12-27T02:10:51.116Z,80.82
2022-12-27T02:15:52.767Z,80.75
2022-12-27T02:21:18.546Z,80.98
2022-12-27T02:26:48.222Z,80.81
2022-12-27T02:32:08.890Z,81.05
2022-12-27T02:37:13.500Z,81.58
2022-12-27T02:42:35.886Z,81.81
2022-12-27T02:47:56.928Z,81.52
2022-12-27T02:53:30.882Z,81.33
2022-12-27T02:58:53.925Z,81.06
2022-12-27T03:04:21.030Z,80.42
2022-12-27T03:10:19.799Z,80.60
2022-12-27T03:15:57.327Z,80.94
2022-12-27T03:21:19.432Z,80.17
2022-12-27T03:26:23.093Z,79.88
2022-12-27T03:31:48.922Z,80.21
2022-12-27T03:37:10.631Z,80.85
2022-12-27T03:42:38.034Z,81.19
2022-12-27T03:47:59.824Z,80.81
2022-12-27T03:53:10.249Z,80.46
2022-12-27T03:58:11.987Z,80.47
2022-12-27T04:03:14.161Z,80.33
2022-12-27T04:08:34.793Z,80.29
2022-12-27T04:13:54.977Z,79.70
2022-12-27T04:19:15.220Z,78.18
2022-12-27T04:24:35.614Z,77.39
2022-12-27T04:29:55.957Z,76.59
2022-12-27T04:34:57.596Z,76.79
2022-12-27T04:40:18.213Z,75.81
2022-12-27T04:45:38.908Z,76.74
2022-12-27T04:50:58.769Z,77.60
2022-12-27T04:56:00.754Z,78.72
2022-12-27T05:01:23.665Z,79.11
2022-12-27T05:06:25.467Z,79.05
2022-12-27T05:11:46.132Z,78.31
2022-12-27T05:16:47.773Z,78.36
2022-12-27T05:22:08.011Z,78.79
2022-12-27T05:27:09.812Z,79.11
2022-12-27T05:32:13.573Z,79.35
2022-12-27T05:37:15.577Z,79.50
2022-12-27T05:42:17.218Z,79.36
2022-12-27T05:47:18.999Z,78.60
2022-12-27T05:52:20.871Z,77.52
2022-12-27T05:57:22.570Z,77.82
2022-12-27T06:02:24.323Z,77.38
2022-12-27T06:07:26.233Z,77.35
2022-12-27T06:12:27.932Z,76.50
2022-12-27T06:17:29.599Z,75.68
2022-12-27T06:22:31.228Z,74.36
2022-12-27T06:27:34.142Z,75.27
2022-12-27T06:32:35.784Z,73.78
2022-12-27T06:37:37.400Z,78.58
2022-12-27T06:42:39.120Z,80.84
2022-12-27T06:47:40.727Z,81.42
2022-12-27T06:52:42.342Z,81.09
2022-12-27T06:57:43.956Z,81.02
2022-12-27T07:02:45.573Z,80.78
2022-12-27T07:07:47.377Z,80.07
2022-12-27T07:12:49.414Z,79.99
2022-12-27T07:17:51.040Z,78.19
2022-12-27T07:22:52.676Z,77.87
2022-12-27T07:27:54.439Z,77.09
2022-12-27T07:32:56.261Z,76.20
2022-12-27T07:37:58.075Z,74.77
2022-12-27T07:42:59.737Z,74.15
2022-12-27T07:48:01.429Z,74.79
2022-12-27T07:53:03.222Z,73.84
2022-12-27T07:58:05.079Z,73.52
2022-12-27T08:03:06.889Z,72.22
2022-12-27T08:08:09.359Z,69.01
2022-12-27T08:13:11.245Z,67.86
2022-12-27T08:18:13.082Z,66.28
2022-12-27T08:23:14.787Z,66.88
2022-12-27T08:28:17.790Z,66.41
2022-12-27T08:33:20.084Z,65.70
2022-12-27T08:38:21.950Z,65.77
2022-12-27T08:43:23.544Z,65.87
2022-12-27T08:48:25.388Z,66.32
2022-12-27T08:53:26.974Z,65.29
2022-12-27T08:58:28.614Z,64.21
2022-12-27T09:03:30.275Z,63.61
2022-12-27T09:08:31.900Z,64.10
2022-12-27T09:13:33.671Z,63.90
2022-12-27T09:18:41.116Z,64.35
2022-12-27T09:23:43.575Z,64.21
2022-12-27T09:28:46.563Z,64.64
2022-12-27T09:33:48.784Z,64.77
2022-12-27T09:38:53.034Z,64.73
2022-12-27T09:44:17.998Z,64.30
2022-12-27T09:49:51.178Z,62.75
2022-12-27T09:55:05.396Z,63.29
2022-12-27T10:00:15.878Z,63.03
2022-12-27T10:05:22.970Z,64.45
2022-12-27T10:10:53.988Z,63.15
2022-12-27T10:16:14.094Z,63.81
2022-12-27T10:21:23.545Z,64.70
2022-12-27T10:26:25.890Z,63.37
2022-12-27T10:31:30.177Z,63.70
2022-12-27T10:36:32.628Z,64.56
2022-12-27T10:41:34.181Z,65.21
2022-12-27T10:46:36.468Z,65.14
2022-12-27T10:51:41.785Z,63.53
2022-12-27T10:56:45.305Z,64.55
2022-12-27T11:02:07.000Z,64.89
2022-12-27T11:07:18.186Z,64.45
2022-12-27T11:12:32.220Z,63.41
2022-12-27T11:17:55.445Z,61.31
2022-12-27T11:23:04.073Z,60.67
2022-12-27T11:28:16.577Z,61.64
2022-12-27T11:33:32.213Z,60.40
2022-12-27T11:38:36.656Z,59.24
2022-12-27T11:43:53.287Z,60.27
2022-12-27T11:48:58.823Z,60.17
2022-12-27T11:54:06.407Z,60.12
2022-12-27T11:59:32.904Z,60.91
2022-12-27T12:05:18.194Z,58.70
2022-12-27T12:10:25.859Z,58.74
2022-12-27T12:15:33.765Z,58.24
2022-12-27T12:20:50.988Z,57.88
2022-12-27T12:26:06.253Z,58.00
2022-12-27T12:31:26.643Z,60.34
2022-12-27T12:36:52.911Z,62.18
2022-12-27T12:42:30.165Z,60.89
2022-12-27T12:47:42.888Z,60.39
2022-12-27T12:53:01.589Z,60.07
2022-12-27T12:58:36.370Z,60.74
2022-12-27T13:04:02.478Z,61.34
2022-12-27T13:09:19.216Z,60.86
2022-12-27T13:14:42.476Z,59.98
2022-12-27T13:20:14.091Z,60.01
2022-12-27T13:26:06.803Z,58.78
2022-12-27T13:32:00.804Z,59.57
2022-12-27T13:37:17.611Z,59.01
2022-12-27T13:42:49.181Z,60.69
2022-12-27T13:48:12.825Z,60.37
2022-12-27T13:53:44.980Z,60.27
2022-12-27T13:58:59.698Z,60.85
2022-12-27T14:04:27.660Z,61.58
2022-12-27T14:09:51.117Z,61.94
2022-12-27T14:14:56.571Z,62.85
2022-12-27T14:20:07.574Z,63.21
2022-12-27T14:25:30.970Z,63.75
2022-12-27T14:30:32.547Z,64.01
2022-12-27T14:35:55.679Z,64.43
2022-12-27T14:41:12.340Z,64.50
2022-12-27T14:46:35.910Z,65.62
2022-12-27T14:52:08.585Z,66.15
2022-12-27T14:57:34.066Z,65.83
2022-12-27T15:02:59.218Z,66.20
2022-12-27T15:08:16.015Z,66.46
2022-12-27T15:13:32.661Z,66.93
2022-12-27T15:19:14.414Z,67.48
2022-12-27T15:24:53.582Z,67.98
2022-12-27T15:30:18.276Z,68.27
2022-12-27T15:35:38.647Z,68.34
2022-12-27T15:40:55.546Z,69.43
2022-12-27T15:46:21.496Z,69.35
2022-12-27T15:51:32.532Z,69.81
2022-12-27T15:56:49.077Z,70.28
2022-12-27T16:02:13.455Z,70.41
2022-12-27T16:07:38.612Z,70.40
2022-12-27T16:12:40.721Z,70.35
2022-12-27T16:17:55.692Z,70.81
2022-12-27T16:23:00.379Z,70.97
2022-12-27T16:28:15.939Z,71.13
2022-12-27T16:33:26.591Z,71.05
2022-12-27T16:38:30.352Z,71.36
2022-12-27T16:44:07.644Z,71.64
2022-12-27T16:49:27.236Z,71.59
2022-12-27T16:54:53.647Z,71.40
2022-12-27T17:00:24.640Z,71.66
2022-12-27T17:05:26.981Z,71.81
2022-12-27T17:10:39.293Z,72.26
2022-12-27T17:16:19.884Z,72.86
2022-12-27T17:21:30.408Z,72.56
2022-12-27T17:27:00.027Z,72.69
2022-12-27T17:32:04.240Z,72.58
2022-12-27T17:37:28.032Z,72.98
2022-12-27T17:43:02.616Z,73.20
2022-12-27T17:48:25.436Z,73.49
2022-12-27T17:53:45.736Z,73.80
2022-12-27T17:58:47.350Z,73.79
2022-12-27T18:03:50.111Z,74.63
2022-12-27T18:08:52.070Z,74.46
2022-12-27T18:13:56.658Z,74.59
2022-12-27T18:19:00.713Z,76.21
2022-12-27T18:24:02.432Z,75.89
2022-12-27T18:29:05.706Z,77.36
2022-12-27T18:34:25.375Z,77.50
2022-12-27T18:39:30.114Z,77.48
2022-12-27T18:44:59.027Z,76.94
2022-12-27T18:50:02.875Z,77.09
2022-12-27T18:55:27.565Z,77.33
2022-12-27T19:00:30.610Z,76.73
2022-12-27T19:05:32.816Z,76.94
2022-12-27T19:10:34.897Z,76.96
2022-12-27T19:15:41.960Z,77.09
2022-12-27T19:20:54.477Z,77.26
2022-12-27T19:26:28.995Z,77.30
2022-12-27T19:31:31.400Z,77.50
2022-12-27T19:36:38.328Z,77.94
2022-12-27T19:41:40.054Z,77.73
2022-12-27T19:46:41.966Z,78.14
2022-12-27T19:51:44.552Z,78.17
2022-12-27T19:56:46.514Z,78.14
2022-12-27T20:01:48.674Z,78.35
2022-12-27T20:06:50.470Z,79.44
2022-12-27T20:11:52.377Z,79.31
2022-12-27T20:16:54.044Z,79.16
2022-12-27T20:21:55.723Z,79.80
2022-12-27T20:26:57.327Z,79.54
2022-12-27T20:31:59.465Z,79.89
2022-12-27T20:37:01.134Z,80.46
2022-12-27T20:42:03.418Z,80.08
2022-12-27T20:47:05.336Z,80.30
2022-12-27T20:52:06.975Z,80.30
2022-12-27T20:57:08.737Z,80.34
2022-12-27T21:02:12.263Z,79.97
2022-12-27T21:07:14.106Z,80.24
2022-12-27T21:12:16.149Z,80.60
2022-12-27T21:17:17.896Z,80.80
2022-12-27T21:22:19.543Z,80.55
2022-12-27T21:27:21.607Z,80.73
2022-12-27T21:32:23.322Z,80.68
2022-12-27T21:37:25.011Z,81.08
2022-12-27T21:42:26.651Z,81.22
2022-12-27T21:47:29.273Z,81.39
2022-12-27T21:52:30.887Z,81.48
2022-12-27T21:57:32.595Z,81.51
2022-12-27T22:02:34.277Z,82.42
2022-12-27T22:07:36.178Z,81.86
2022-12-27T22:12:37.995Z,82.33
2022-12-27T22:17:39.608Z,82.39
2022-12-27T22:22:41.635Z,82.30
2022-12-27T22:27:43.248Z,82.56
2022-12-27T22:32:45.723Z,82.31
2022-12-27T22:37:47.351Z,82.25
2022-12-27T22:42:48.952Z,83.40
2022-12-27T22:47:50.955Z,83.73
2022-12-27T22:52:52.729Z,84.16
2022-12-27T22:57:54.562Z,84.31
2022-12-27T23:02:58.267Z,84.55
2022-12-27T23:08:04.123Z,85.04
2022-12-27T23:13:08.568Z,85.42
2022-12-27T23:18:11.715Z,85.46
2022-12-27T23:23:13.417Z,86.59
2022-12-27T23:28:15.238Z,85.94
2022-12-27T23:33:17.085Z,86.59
2022-12-27T23:38:18.680Z,86.83
2022-12-27T23:43:51.190Z,87.11
2022-12-27T23:48:42.738Z,86.56
2022-12-27T23:53:44.423Z,86.70
2022-12-27T23:58:46.538Z,87.44
